createdAt,value
2023-03-07T00:04:51.787Z,3.13
2023-03-07T00:09:53.240Z,3.11
2023-03-07T00:14:55.893Z,3.02
2023-03-07T00:19:57.420Z,2.99
2023-03-07T00:24:59.449Z,3.01
2023-03-07T00:30:02.226Z,3.00
2023-03-07T00:35:04.009Z,2.94
2023-03-07T00:40:07.501Z,2.96
2023-03-07T00:45:09.324Z,2.98
2023-03-07T00:50:11.091Z,3.04
2023-03-07T00:55:12.630Z,3.08
2023-03-07T01:00:14.415Z,3.14
2023-03-07T01:05:15.890Z,3.13
2023-03-07T01:10:17.785Z,3.08
2023-03-07T01:15:19.332Z,2.98
2023-03-07T01:20:20.806Z,2.96
2023-03-07T01:25:22.312Z,2.93
2023-03-07T01:30:24.934Z,2.92
2023-03-07T01:35:26.469Z,2.89
2023-03-07T01:40:27.996Z,2.84
2023-03-07T01:45:35.289Z,2.78
2023-03-07T01:50:36.807Z,2.73
2023-03-07T01:55:38.850Z,2.70
2023-03-07T02:00:42.178Z,2.70
2023-03-07T02:06:05.788Z,2.66
2023-03-07T02:11:07.736Z,2.62
2023-03-07T02:16:09.421Z,2.60
2023-03-07T02:21:34.623Z,2.57
2023-03-07T02:26:47.652Z,2.60
2023-03-07T02:31:49.342Z,2.64
2023-03-07T02:36:56.658Z,2.70
2023-03-07T02:42:02.964Z,2.74
2023-03-07T02:47:08.852Z,2.77
2023-03-07T02:52:10.631Z,2.75
2023-03-07T02:57:12.145Z,2.82
2023-03-07T03:02:13.761Z,2.88
2023-03-07T03:07:15.343Z,2.89
2023-03-07T03:12:16.835Z,2.86
2023-03-07T03:17:18.632Z,2.93
2023-03-07T03:22:20.624Z,2.90
2023-03-07T03:27:22.102Z,2.90
2023-03-07T03:32:23.715Z,2.96
2023-03-07T03:37:25.379Z,2.99
2023-03-07T03:42:26.896Z,2.97
2023-03-07T03:47:28.351Z,2.95
2023-03-07T03:52:29.828Z,2.92
2023-03-07T03:57:31.341Z,2.86
2023-03-07T04:02:33.294Z,2.80
2023-03-07T04:07:34.904Z,2.80
2023-03-07T04:12:37.046Z,2.79
2023-03-07T04:17:38.535Z,2.86
2023-03-07T04:22:40.360Z,2.80
2023-03-07T04:27:41.831Z,2.72
2023-03-07T04:32:43.481Z,2.66
2023-03-07T04:37:45.104Z,2.65
2023-03-07T04:42:46.592Z,2.68
2023-03-07T04:47:48.103Z,2.66
2023-03-07T04:52:50.473Z,2.63
2023-03-07T04:57:52.109Z,2.67
2023-03-07T05:02:57.768Z,2.72
2023-03-07T05:07:59.238Z,2.81
2023-03-07T05:13:01.280Z,2.83
2023-03-07T05:18:02.967Z,2.81
2023-03-07T05:23:04.472Z,2.80
2023-03-07T05:28:06.025Z,2.77
2023-03-07T05:33:07.573Z,2.65
2023-03-07T05:38:09.332Z,2.60
2023-03-07T05:43:10.844Z,2.43
2023-03-07T05:48:12.371Z,2.41
2023-03-07T05:53:13.883Z,2.44
2023-03-07T05:58:15.362Z,2.24
2023-03-07T06:03:16.804Z,2.02
2023-03-07T06:08:18.343Z,1.89
2023-03-07T06:13:24.472Z,1.84
2023-03-07T06:18:26.716Z,1.92
2023-03-07T06:23:30.823Z,1.96
2023-03-07T06:28:33.005Z,1.97
2023-03-07T06:33:34.673Z,2.09
2023-03-07T06:38:36.456Z,2.13
2023-03-07T06:43:38.051Z,2.07
2023-03-07T06:48:39.585Z,2.05
2023-03-07T06:53:41.219Z,2.15
2023-03-07T06:58:42.748Z,2.13
2023-03-07T07:03:44.560Z,1.99
2023-03-07T07:08:46.048Z,1.99
2023-03-07T07:13:47.606Z,1.97
2023-03-07T07:18:52.242Z,1.96
2023-03-07T07:23:56.608Z,1.92
2023-03-07T07:28:58.155Z,2.03
2023-03-07T07:34:00.172Z,2.13
2023-03-07T07:39:06.442Z,2.14
2023-03-07T07:44:08.017Z,2.16
2023-03-07T07:49:09.574Z,2.12
2023-03-07T07:54:11.482Z,2.29
2023-03-07T07:59:13.294Z,2.40
2023-03-07T08:04:14.778Z,2.46
2023-03-07T08:09:16.517Z,2.53
2023-03-07T08:14:18.087Z,2.59
2023-03-07T08:19:19.581Z,2.65
2023-03-07T08:24:29.304Z,2.70
2023-03-07T08:29:37.424Z,2.87
2023-03-07T08:34:38.886Z,3.03
2023-03-07T08:39:40.417Z,3.14
2023-03-07T08:44:41.904Z,3.26
2023-03-07T08:49:43.427Z,3.23
2023-03-07T08:54:44.966Z,3.32
2023-03-07T08:59:46.536Z,3.38
2023-03-07T09:04:48.173Z,3.46
2023-03-07T09:09:50.005Z,3.51
2023-03-07T09:14:54.492Z,3.58
2023-03-07T09:19:56.671Z,3.65
2023-03-07T09:24:58.182Z,3.71
2023-03-07T09:30:00.226Z,3.78
2023-03-07T09:35:01.702Z,3.92
2023-03-07T09:40:09.298Z,3.98
2023-03-07T09:45:40.183Z,4.06
2023-03-07T09:51:10.358Z,4.13
2023-03-07T09:56:21.894Z,4.09
2023-03-07T10:01:27.669Z,4.13
2023-03-07T10:06:39.496Z,4.25
2023-03-07T10:12:05.899Z,4.25
2023-03-07T10:17:26.205Z,4.29
2023-03-07T10:22:48.765Z,4.21
2023-03-07T10:27:55.470Z,4.04
2023-03-07T10:33:01.133Z,3.68
2023-03-07T10:38:14.983Z,3.07
2023-03-07T10:43:28.449Z,2.94
2023-03-07T10:48:31.633Z,3.04
2023-03-07T10:53:36.519Z,3.33
2023-03-07T10:58:38.176Z,3.68
2023-03-07T11:03:53.470Z,3.92
2023-03-07T11:08:56.296Z,4.12
2023-03-07T11:14:06.671Z,4.32
2023-03-07T11:19:26.615Z,4.56
2023-03-07T11:24:31.055Z,4.72
2023-03-07T11:29:33.797Z,4.85
2023-03-07T11:34:59.362Z,4.89
2023-03-07T11:40:23.078Z,5.05
2023-03-07T11:45:43.239Z,5.14
2023-03-07T11:50:53.396Z,5.21
2023-03-07T11:56:38.512Z,5.02
2023-03-07T12:01:55.572Z,4.90
2023-03-07T12:07:35.747Z,4.66
2023-03-07T12:12:48.164Z,4.50
2023-03-07T12:18:22.508Z,4.48
2023-03-07T12:23:42.259Z,4.43
2023-03-07T12:28:57.728Z,4.45
2023-03-07T12:34:11.941Z,4.42
2023-03-07T12:39:45.380Z,4.53
2023-03-07T12:44:52.887Z,4.64
2023-03-07T12:50:25.802Z,4.65
2023-03-07T12:55:41.307Z,4.76
2023-03-07T13:00:54.575Z,5.12
2023-03-07T13:05:56.718Z,5.09
2023-03-07T13:10:58.535Z,5.05
2023-03-07T13:16:05.539Z,4.84
2023-03-07T13:21:31.828Z,4.81
2023-03-07T13:26:33.619Z,4.77
2023-03-07T13:31:39.383Z,4.79
2023-03-07T13:36:40.871Z,4.90
2023-03-07T13:41:48.633Z,4.75
2023-03-07T13:46:52.404Z,4.56
2023-03-07T13:52:20.234Z,4.38
2023-03-07T13:57:29.110Z,4.33
2023-03-07T14:02:32.049Z,4.27
2023-03-07T14:07:37.209Z,4.17
2023-03-07T14:13:06.401Z,4.12
2023-03-07T14:18:26.564Z,4.06
2023-03-07T14:23:43.452Z,4.03
2023-03-07T14:29:08.114Z,4.05
2023-03-07T14:34:36.191Z,3.98
2023-03-07T14:39:49.246Z,3.56
2023-03-07T14:45:17.915Z,3.05
2023-03-07T14:50:26.937Z,2.62
2023-03-07T14:55:35.751Z,2.50
2023-03-07T15:00:37.289Z,2.51
2023-03-07T15:11:33.304Z,2.50
2023-03-07T15:16:45.865Z,2.57
2023-03-07T15:21:52.880Z,2.67
2023-03-07T15:26:55.614Z,2.69
2023-03-07T15:32:02.748Z,2.61
2023-03-07T15:37:24.679Z,2.58
2023-03-07T15:42:26.616Z,2.71
2023-03-07T15:47:31.543Z,2.66
2023-03-07T15:52:36.675Z,2.62
2023-03-07T15:57:48.980Z,2.63
2023-03-07T16:02:51.117Z,2.67
2023-03-07T16:07:54.838Z,2.66
2023-03-07T16:12:57.314Z,2.58
2023-03-07T16:17:58.891Z,2.53
2023-03-07T16:23:00.379Z,2.44
2023-03-07T16:28:01.957Z,2.25
2023-03-07T16:33:03.506Z,2.01
2023-03-07T16:38:05.423Z,1.90
2023-03-07T16:43:28.114Z,1.91
2023-03-07T16:48:29.786Z,1.98
2023-03-07T16:53:31.316Z,1.90
2023-03-07T16:58:35.294Z,1.89
2023-03-07T17:03:36.807Z,1.83
2023-03-07T17:08:38.331Z,1.90
2023-03-07T17:13:39.877Z,1.95
2023-03-07T17:18:41.449Z,1.77
2023-03-07T17:23:44.971Z,1.60
2023-03-07T17:28:46.637Z,1.51
2023-03-07T17:33:48.115Z,1.50
2023-03-07T17:38:49.660Z,1.39
2023-03-07T17:43:52.348Z,1.24
2023-03-07T17:48:53.828Z,1.08
2023-03-07T17:53:56.189Z,0.94
2023-03-07T17:59:01.443Z,0.92
2023-03-07T18:04:06.026Z,0.82
2023-03-07T18:09:08.058Z,0.65
2023-03-07T18:14:11.272Z,0.62
2023-03-07T18:19:25.454Z,0.64
2023-03-07T18:24:29.832Z,0.72
2023-03-07T18:29:32.000Z,0.63
2023-03-07T18:34:33.524Z,0.57
2023-03-07T18:39:36.059Z,0.38
2023-03-07T18:44:41.580Z,0.38
2023-03-07T18:49:43.266Z,0.42
2023-03-07T18:54:48.227Z,0.42
2023-03-07T18:59:51.079Z,0.40
2023-03-07T19:04:53.976Z,0.44
2023-03-07T19:09:55.522Z,0.50
2023-03-07T19:14:57.001Z,0.55
2023-03-07T19:20:00.121Z,0.47
2023-03-07T19:25:01.717Z,0.46
2023-03-07T19:30:03.387Z,0.43
2023-03-07T19:35:05.263Z,0.17
2023-03-07T19:40:07.637Z,0.00
2023-03-07T19:45:09.407Z,-0.24
2023-03-07T19:50:11.679Z,-0.59
2023-03-07T19:55:13.228Z,-0.69
2023-03-07T20:00:15.495Z,-0.83
2023-03-07T20:05:17.184Z,-1.11
2023-03-07T20:10:18.838Z,-1.46
2023-03-07T20:15:20.308Z,-1.37
2023-03-07T20:20:21.766Z,-1.37
2023-03-07T20:25:24.032Z,-1.37
2023-03-07T20:30:25.585Z,-1.43
2023-03-07T20:35:27.147Z,-1.82
2023-03-07T20:40:28.697Z,-2.43
2023-03-07T20:45:30.288Z,-1.50
2023-03-07T20:50:31.807Z,-0.67
2023-03-07T20:55:33.504Z,-0.31
2023-03-07T21:00:34.995Z,-0.09
2023-03-07T21:05:36.530Z,-0.02
2023-03-07T21:10:38.060Z,0.06
2023-03-07T21:15:42.635Z,0.04
2023-03-07T21:20:44.133Z,0.01
2023-03-07T21:25:45.807Z,0.05
2023-03-07T21:30:49.437Z,0.06
2023-03-07T21:35:51.117Z,0.08
2023-03-07T21:40:55.714Z,0.07
2023-03-07T21:45:57.292Z,-0.17
2023-03-07T21:50:58.969Z,-0.51
2023-03-07T21:56:17.189Z,-0.76
2023-03-07T22:01:25.746Z,-1.23
2023-03-07T22:06:27.599Z,-1.46
2023-03-07T22:11:29.157Z,-1.53
2023-03-07T22:16:30.784Z,-1.48
2023-03-07T22:21:33.059Z,-1.47
2023-03-07T22:26:34.627Z,-1.77
2023-03-07T22:31:36.177Z,-2.43
2023-03-07T22:36:37.751Z,-2.68
2023-03-07T22:41:39.265Z,-2.27
2023-03-07T22:46:41.037Z,-1.39
2023-03-07T22:51:43.011Z,-1.01
2023-03-07T22:56:44.684Z,-0.83
2023-03-07T23:01:46.277Z,-0.77
2023-03-07T23:06:47.781Z,-0.71
2023-03-07T23:11:49.344Z,-0.67
2023-03-07T23:16:50.872Z,-0.65
2023-03-07T23:21:52.399Z,-0.62
2023-03-07T23:26:53.892Z,-0.60
2023-03-07T23:31:55.413Z,-0.67
2023-03-07T23:36:56.969Z,-0.70
2023-03-07T23:41:58.462Z,-0.77
2023-03-07T23:47:00.129Z,-0.76
2023-03-07T23:52:01.592Z,-0.74
2023-03-07T23:57:03.141Z,-0.81
